Flugplatz Ailertchen

Für EDGA sind keine METAR/TAF Berichte vorhanden.
Es werden die Flugwettermeldungen vom Flugplatz Siegerland in 16 km Entfernung angezeigt.

Bericht für EDGS

vom 10.04. um 11:50 UTC

Wind 9 kt aus 120°

Sichtweite 2700 m

feuchter Dunst

bedeckt in 300 ft

Temperatur 5.0°C

Taupunkt 5.0°C

Luftfeuchtigkeit 100%

Luftdruck 1012 hPa

EDGS 101150Z 12009KT 2700 BR OVC003 05/05 Q1012

Prognose für EDGS

vom 10.04. um 11:00 UTC

Zwischen 12:00 UTC und 21:00 UTC

Wind 8 kt aus 120°

Sichtweite 4000 m

feuchter Dunst

aufgebrochene Bewölkung in 500 ft


Zwischen 12:00 UTC und 21:00 UTC zeitweise mit einer Wahrscheinlichkeit von 30%

Sichtweite 700 m

Regen


Zwischen 12:00 UTC und 21:00 UTC zeitweise

Sichtweite 1200 m

Regen

feuchter Dunst

aufgebrochene Bewölkung in 100 ft

TAF EDGS 101100Z 1012/1021 12008KT 4000 BR BKN005 TEMPO 1012/1021 1200 RA BR BKN001 PROB30 TEMPO 1012/1021 0700 RA
Impressum